sensor_id;sensor_type;location;lat;lon;timestamp;pressure;altitude;pressure_sealevel;temperature;humidity
44926;BME280;30662;51.210;7.656;2022-09-01T00:01:14;96790.94;;;16.32;67.28
44926;BME280;30662;51.210;7.656;2022-09-01T00:03:48;96790.16;;;16.37;66.86
44926;BME280;30662;51.210;7.656;2022-09-01T00:06:15;96787.00;;;16.40;66.97
44926;BME280;30662;51.210;7.656;2022-09-01T00:08:55;96787.47;;;16.32;67.39
44926;BME280;30662;51.210;7.656;2022-09-01T00:11:23;96788.09;;;16.44;66.80
44926;BME280;30662;51.210;7.656;2022-09-01T00:13:51;96787.03;;;16.45;66.63
44926;BME280;30662;51.210;7.656;2022-09-01T00:16:17;96784.66;;;16.48;66.37
44926;BME280;30662;51.210;7.656;2022-09-01T00:18:47;96787.44;;;16.26;67.36
44926;BME280;30662;51.210;7.656;2022-09-01T00:21:20;96790.09;;;16.26;67.57
44926;BME280;30662;51.210;7.656;2022-09-01T00:23:47;96794.44;;;16.38;67.21
44926;BME280;30662;51.210;7.656;2022-09-01T00:26:13;96793.06;;;16.35;67.13
44926;BME280;30662;51.210;7.656;2022-09-01T00:28:39;96787.16;;;16.23;67.56
44926;BME280;30662;51.210;7.656;2022-09-01T00:31:06;96789.34;;;16.31;67.54
44926;BME280;30662;51.210;7.656;2022-09-01T00:33:34;96795.88;;;16.18;67.96
44926;BME280;30662;51.210;7.656;2022-09-01T00:36:00;96786.59;;;16.21;67.79
44926;BME280;30662;51.210;7.656;2022-09-01T00:38:26;96780.31;;;16.32;67.36
44926;BME280;30662;51.210;7.656;2022-09-01T00:40:53;96784.50;;;16.28;67.40
44926;BME280;30662;51.210;7.656;2022-09-01T00:43:36;96784.72;;;16.16;67.88
44926;BME280;30662;51.210;7.656;2022-09-01T00:46:04;96782.59;;;16.18;67.73
44926;BME280;30662;51.210;7.656;2022-09-01T00:48:31;96781.53;;;16.19;67.62
44926;BME280;30662;51.210;7.656;2022-09-01T00:50:59;96778.38;;;16.22;67.77
44926;BME280;30662;51.210;7.656;2022-09-01T00:53:26;96779.59;;;16.10;68.21
44926;BME280;30662;51.210;7.656;2022-09-01T00:55:52;96781.66;;;16.03;68.55
44926;BME280;30662;51.210;7.656;2022-09-01T00:58:19;96776.34;;;16.03;68.65
44926;BME280;30662;51.210;7.656;2022-09-01T01:00:47;96775.66;;;16.17;67.75
44926;BME280;30662;51.210;7.656;2022-09-01T01:03:14;96774.56;;;15.81;69.25
44926;BME280;30662;51.210;7.656;2022-09-01T01:05:43;96775.91;;;15.84;69.30
44926;BME280;30662;51.210;7.656;2022-09-01T01:08:13;96771.41;;;15.84;69.38
44926;BME280;30662;51.210;7.656;2022-09-01T01:10:42;96768.84;;;15.94;69.12
44926;BME280;30662;51.210;7.656;2022-09-01T01:13:11;96770.94;;;15.92;69.21
44926;BME280;30662;51.210;7.656;2022-09-01T01:15:38;96775.91;;;15.84;69.34
44926;BME280;30662;51.210;7.656;2022-09-01T01:18:13;96780.38;;;15.78;69.81
44926;BME280;30662;51.210;7.656;2022-09-01T01:20:41;96775.91;;;15.84;69.47
44926;BME280;30662;51.210;7.656;2022-09-01T01:23:37;96774.59;;;15.59;70.39
44926;BME280;30662;51.210;7.656;2022-09-01T01:26:07;96776.50;;;15.64;70.18
44926;BME280;30662;51.210;7.656;2022-09-01T01:28:38;96769.72;;;15.51;70.51
44926;BME280;30662;51.210;7.656;2022-09-01T01:31:08;96772.50;;;15.61;70.36
44926;BME280;30662;51.210;7.656;2022-09-01T01:33:45;96770.56;;;15.57;70.20
44926;BME280;30662;51.210;7.656;2022-09-01T01:36:19;96774.41;;;15.66;69.63
44926;BME280;30662;51.210;7.656;2022-09-01T01:38:47;96768.31;;;15.65;69.58
44926;BME280;30662;51.210;7.656;2022-09-01T01:41:14;96764.91;;;15.48;70.46
44926;BME280;30662;51.210;7.656;2022-09-01T01:43:41;96768.94;;;15.51;70.40
44926;BME280;30662;51.210;7.656;2022-09-01T01:46:08;96770.22;;;15.48;70.40
44926;BME280;30662;51.210;7.656;2022-09-01T01:48:37;96772.97;;;15.31;71.41
44926;BME280;30662;51.210;7.656;2022-09-01T01:51:04;96773.31;;;15.62;70.13
44926;BME280;30662;51.210;7.656;2022-09-01T01:53:31;96771.16;;;15.37;71.08
44926;BME280;30662;51.210;7.656;2022-09-01T01:55:58;96778.38;;;15.41;71.14
44926;BME280;30662;51.210;7.656;2022-09-01T01:58:26;96770.06;;;15.60;70.49
44926;BME280;30662;51.210;7.656;2022-09-01T02:00:54;96777.13;;;15.49;70.89
44926;BME280;30662;51.210;7.656;2022-09-01T02:03:23;96777.72;;;15.29;71.96
44926;BME280;30662;51.210;7.656;2022-09-01T02:05:54;96776.50;;;15.42;71.29
44926;BME280;30662;51.210;7.656;2022-09-01T02:08:22;96776.16;;;15.33;71.83
44926;BME280;30662;51.210;7.656;2022-09-01T02:10:52;96779.16;;;15.42;71.56
44926;BME280;30662;51.210;7.656;2022-09-01T02:13:22;96781.63;;;15.49;71.33
44926;BME280;30662;51.210;7.656;2022-09-01T02:15:53;96778.34;;;15.36;71.59
44926;BME280;30662;51.210;7.656;2022-09-01T02:18:23;96780.94;;;15.31;72.30
44926;BME280;30662;51.210;7.656;2022-09-01T02:20:52;96784.25;;;15.43;71.49
44926;BME280;30662;51.210;7.656;2022-09-01T02:23:19;96782.53;;;15.32;72.32
44926;BME280;30662;51.210;7.656;2022-09-01T02:25:50;96775.09;;;15.34;72.46
44926;BME280;30662;51.210;7.656;2022-09-01T02:28:38;96776.34;;;15.27;72.30
44926;BME280;30662;51.210;7.656;2022-09-01T02:31:08;96780.19;;;15.36;72.04
44926;BME280;30662;51.210;7.656;2022-09-01T02:33:37;96769.91;;;15.44;71.74
44926;BME280;30662;51.210;7.656;2022-09-01T02:36:09;96776.53;;;15.20;72.96
44926;BME280;30662;51.210;7.656;2022-09-01T02:38:40;96776.66;;;15.30;72.60
44926;BME280;30662;51.210;7.656;2022-09-01T02:41:19;96772.91;;;15.26;72.74
44926;BME280;30662;51.210;7.656;2022-09-01T02:43:48;96779.69;;;15.17;72.95
44926;BME280;30662;51.210;7.656;2022-09-01T02:46:14;96774.28;;;14.85;74.84
44926;BME280;30662;51.210;7.656;2022-09-01T02:48:42;96771.13;;;14.88;75.01
44926;BME280;30662;51.210;7.656;2022-09-01T02:51:14;96767.94;;;14.91;74.77
44926;BME280;30662;51.210;7.656;2022-09-01T02:53:44;96771.81;;;15.00;74.28
44926;BME280;30662;51.210;7.656;2022-09-01T02:56:14;96771.31;;;15.03;74.40
44926;BME280;30662;51.210;7.656;2022-09-01T02:58:43;96769.38;;;14.77;75.88
44926;BME280;30662;51.210;7.656;2022-09-01T03:01:20;96765.28;;;14.69;76.51
44926;BME280;30662;51.210;7.656;2022-09-01T03:03:48;96762.53;;;14.81;75.83
44926;BME280;30662;51.210;7.656;2022-09-01T03:06:14;96767.22;;;14.74;76.49
44926;BME280;30662;51.210;7.656;2022-09-01T03:08:50;96766.16;;;14.75;76.29
44926;BME280;30662;51.210;7.656;2022-09-01T03:11:16;96762.00;;;14.62;76.94
44926;BME280;30662;51.210;7.656;2022-09-01T03:13:43;96757.38;;;14.52;77.83
44926;BME280;30662;51.210;7.656;2022-09-01T03:16:10;96762.50;;;14.42;78.23
44926;BME280;30662;51.210;7.656;2022-09-01T03:18:37;96769.03;;;14.51;77.87
44926;BME280;30662;51.210;7.656;2022-09-01T03:21:06;96757.53;;;14.46;77.94
44926;BME280;30662;51.210;7.656;2022-09-01T03:23:32;96758.09;;;14.65;77.36
44926;BME280;30662;51.210;7.656;2022-09-01T03:26:00;96764.53;;;14.52;77.95
44926;BME280;30662;51.210;7.656;2022-09-01T03:28:26;96765.97;;;14.59;77.32
44926;BME280;30662;51.210;7.656;2022-09-01T03:30:54;96769.81;;;14.52;77.69
44926;BME280;30662;51.210;7.656;2022-09-01T03:33:22;96762.50;;;14.59;77.43
44926;BME280;30662;51.210;7.656;2022-09-01T03:35:50;96765.97;;;14.59;77.13
44926;BME280;30662;51.210;7.656;2022-09-01T03:38:16;96768.47;;;14.49;77.72
44926;BME280;30662;51.210;7.656;2022-09-01T03:40:45;96767.44;;;14.50;77.78
44926;BME280;30662;51.210;7.656;2022-09-01T03:43:12;96764.53;;;14.35;78.29
44926;BME280;30662;51.210;7.656;2022-09-01T03:45:44;96762.03;;;14.28;78.75
44926;BME280;30662;51.210;7.656;2022-09-01T03:48:11;96768.84;;;14.24;79.22
44926;BME280;30662;51.210;7.656;2022-09-01T03:50:42;96764.19;;;14.31;78.65
44926;BME280;30662;51.210;7.656;2022-09-01T03:53:14;96756.31;;;14.37;77.86
44926;BME280;30662;51.210;7.656;2022-09-01T03:55:43;96760.41;;;14.44;77.59
44926;BME280;30662;51.210;7.656;2022-09-01T03:58:10;96758.88;;;14.48;76.98
44926;BME280;30662;51.210;7.656;2022-09-01T04:00:39;96759.78;;;14.54;76.82
44926;BME280;30662;51.210;7.656;2022-09-01T04:03:15;96760.75;;;14.48;76.52
44926;BME280;30662;51.210;7.656;2022-09-01T04:05:55;96758.00;;;14.26;77.72
44926;BME280;30662;51.210;7.656;2022-09-01T04:08:21;96753.34;;;14.33;77.13
44926;BME280;30662;51.210;7.656;2022-09-01T04:11:08;96756.88;;;14.39;76.44
44926;BME280;30662;51.210;7.656;2022-09-01T04:13:37;96757.03;;;14.32;76.38
44926;BME280;30662;51.210;7.656;2022-09-01T04:16:04;96758.09;;;14.31;76.22
44926;BME280;30662;51.210;7.656;2022-09-01T04:18:56;96757.88;;;14.16;76.78
44926;BME280;30662;51.210;7.656;2022-09-01T04:21:25;96752.31;;;14.34;75.72
44926;BME280;30662;51.210;7.656;2022-09-01T04:23:50;96749.59;;;14.29;75.82
44926;BME280;30662;51.210;7.656;2022-09-01T04:26:17;96751.66;;;14.44;74.82
44926;BME280;30662;51.210;7.656;2022-09-01T04:28:47;96760.44;;;14.27;75.49
44926;BME280;30662;51.210;7.656;2022-09-01T04:31:18;96760.59;;;14.21;75.98
44926;BME280;30662;51.210;7.656;2022-09-01T04:33:47;96759.31;;;14.23;75.75
44926;BME280;30662;51.210;7.656;2022-09-01T04:36:31;96752.31;;;14.00;76.02
44926;BME280;30662;51.210;7.656;2022-09-01T04:39:00;96753.03;;;13.96;76.38
44926;BME280;30662;51.210;7.656;2022-09-01T04:41:31;96761.38;;;14.04;75.15
44926;BME280;30662;51.210;7.656;2022-09-01T04:43:59;96757.13;;;14.03;75.28
44926;BME280;30662;51.210;7.656;2022-09-01T04:46:31;96755.38;;;14.09;75.55
44926;BME280;30662;51.210;7.656;2022-09-01T04:49:04;96758.41;;;14.18;74.48
44926;BME280;30662;51.210;7.656;2022-09-01T04:51:40;96753.13;;;14.18;74.06
44926;BME280;30662;51.210;7.656;2022-09-01T04:54:07;96758.03;;;14.09;74.06
44926;BME280;30662;51.210;7.656;2022-09-01T04:56:35;96762.13;;;14.17;73.64
44926;BME280;30662;51.210;7.656;2022-09-01T04:59:02;96758.28;;;14.07;73.88
44926;BME280;30662;51.210;7.656;2022-09-01T05:01:32;96756.25;;;14.15;72.98
44926;BME280;30662;51.210;7.656;2022-09-01T05:04:09;96755.34;;;14.26;72.27
44926;BME280;30662;51.210;7.656;2022-09-01T05:06:40;96753.44;;;14.38;71.13
44926;BME280;30662;51.210;7.656;2022-09-01T05:09:06;96756.41;;;14.42;70.91
44926;BME280;30662;51.210;7.656;2022-09-01T05:11:34;96750.13;;;14.48;70.53
44926;BME280;30662;51.210;7.656;2022-09-01T05:14:02;96757.38;;;14.52;69.80
44926;BME280;30662;51.210;7.656;2022-09-01T05:16:29;96761.06;;;14.51;69.66
44926;BME280;30662;51.210;7.656;2022-09-01T05:18:58;96760.41;;;14.61;69.22
44926;BME280;30662;51.210;7.656;2022-09-01T05:21:26;96754.81;;;14.57;69.21
44926;BME280;30662;51.210;7.656;2022-09-01T05:23:57;96757.41;;;14.74;68.02
44926;BME280;30662;51.210;7.656;2022-09-01T05:26:28;96758.03;;;14.81;67.70
44926;BME280;30662;51.210;7.656;2022-09-01T05:28:58;96758.13;;;14.70;67.39
44926;BME280;30662;51.210;7.656;2022-09-01T05:31:26;96763.84;;;14.61;68.17
44926;BME280;30662;51.210;7.656;2022-09-01T05:33:53;96758.09;;;14.86;67.02
44926;BME280;30662;51.210;7.656;2022-09-01T05:36:22;96753.63;;;14.70;67.14
44926;BME280;30662;51.210;7.656;2022-09-01T05:38:48;96758.56;;;14.83;66.20
44926;BME280;30662;51.210;7.656;2022-09-01T05:41:17;96758.59;;;15.05;65.32
44926;BME280;30662;51.210;7.656;2022-09-01T05:43:47;96758.28;;;15.02;65.42
44926;BME280;30662;51.210;7.656;2022-09-01T05:46:17;96764.22;;;15.09;65.33
44926;BME280;30662;51.210;7.656;2022-09-01T05:48:46;96771.19;;;15.15;65.21
44926;BME280;30662;51.210;7.656;2022-09-01T05:51:16;96766.31;;;15.07;65.92
44926;BME280;30662;51.210;7.656;2022-09-01T05:54:04;96772.00;;;15.15;65.46
44926;BME280;30662;51.210;7.656;2022-09-01T05:56:32;96775.25;;;15.23;65.54
44926;BME280;30662;51.210;7.656;2022-09-01T05:59:00;96770.56;;;15.30;65.44
44926;BME280;30662;51.210;7.656;2022-09-01T06:01:46;96769.97;;;15.28;66.11
44926;BME280;30662;51.210;7.656;2022-09-01T06:04:16;96780.94;;;15.31;67.31
44926;BME280;30662;51.210;7.656;2022-09-01T06:06:45;96779.19;;;15.20;69.15
44926;BME280;30662;51.210;7.656;2022-09-01T06:09:31;96774.31;;;15.12;69.52
44926;BME280;30662;51.210;7.656;2022-09-01T06:11:58;96779.88;;;15.10;69.94
44926;BME280;30662;51.210;7.656;2022-09-01T06:14:24;96768.75;;;15.35;69.41
44926;BME280;30662;51.210;7.656;2022-09-01T06:16:50;96777.81;;;15.39;69.37
44926;BME280;30662;51.210;7.656;2022-09-01T06:19:18;96771.78;;;15.44;69.56
44926;BME280;30662;51.210;7.656;2022-09-01T06:21:47;96771.91;;;15.32;69.95
44926;BME280;30662;51.210;7.656;2022-09-01T06:24:13;96770.81;;;15.28;69.90
44926;BME280;30662;51.210;7.656;2022-09-01T06:26:39;96770.53;;;15.52;68.27
44926;BME280;30662;51.210;7.656;2022-09-01T06:29:08;96776.59;;;15.25;69.42
44926;BME280;30662;51.210;7.656;2022-09-01T06:31:35;96769.97;;;15.28;68.76
44926;BME280;30662;51.210;7.656;2022-09-01T06:34:06;96768.81;;;15.18;69.10
44926;BME280;30662;51.210;7.656;2022-09-01T06:36:37;96775.63;;;15.31;68.78
44926;BME280;30662;51.210;7.656;2022-09-01T06:39:06;96773.47;;;15.28;68.75
44926;BME280;30662;51.210;7.656;2022-09-01T06:41:33;96783.38;;;15.38;68.16
44926;BME280;30662;51.210;7.656;2022-09-01T06:43:59;96780.91;;;15.53;68.14
44926;BME280;30662;51.210;7.656;2022-09-01T06:46:26;96783.13;;;15.61;68.03
44926;BME280;30662;51.210;7.656;2022-09-01T06:48:55;96780.78;;;15.65;67.39
44926;BME280;30662;51.210;7.656;2022-09-01T06:51:25;96783.47;;;15.70;67.41
44926;BME280;30662;51.210;7.656;2022-09-01T06:53:54;96786.25;;;15.80;66.49
44926;BME280;30662;51.210;7.656;2022-09-01T06:56:26;96788.44;;;15.88;65.48
44926;BME280;30662;51.210;7.656;2022-09-01T06:59:15;96785.00;;;15.93;65.53
44926;BME280;30662;51.210;7.656;2022-09-01T07:01:41;96786.59;;;15.89;65.57
44926;BME280;30662;51.210;7.656;2022-09-01T07:04:07;96780.28;;;15.95;65.68
44926;BME280;30662;51.210;7.656;2022-09-01T07:06:39;96786.19;;;16.02;65.67
44926;BME280;30662;51.210;7.656;2022-09-01T07:09:25;96785.19;;;16.13;64.70
44926;BME280;30662;51.210;7.656;2022-09-01T07:12:11;96793.47;;;16.17;64.27
44926;BME280;30662;51.210;7.656;2022-09-01T07:14:54;96792.50;;;16.28;63.64
44926;BME280;30662;51.210;7.656;2022-09-01T07:17:48;96796.84;;;16.39;62.46
44926;BME280;30662;51.210;7.656;2022-09-01T07:20:17;96798.19;;;16.42;62.15
44926;BME280;30662;51.210;7.656;2022-09-01T07:22:50;96793.44;;;16.49;62.39
44926;BME280;30662;51.210;7.656;2022-09-01T07:25:36;96786.00;;;16.51;62.68
44926;BME280;30662;51.210;7.656;2022-09-01T07:28:23;96792.16;;;16.51;62.03
44926;BME280;30662;51.210;7.656;2022-09-01T07:30:51;96786.56;;;16.53;61.85
44926;BME280;30662;51.210;7.656;2022-09-01T07:33:20;96788.22;;;16.59;61.81
44926;BME280;30662;51.210;7.656;2022-09-01T07:36:09;96791.44;;;16.66;61.53
44926;BME280;30662;51.210;7.656;2022-09-01T07:38:51;96784.50;;;16.65;61.39
44926;BME280;30662;51.210;7.656;2022-09-01T07:41:39;96789.94;;;16.75;61.21
44926;BME280;30662;51.210;7.656;2022-09-01T07:44:26;96787.88;;;16.88;61.58
44926;BME280;30662;51.210;7.656;2022-09-01T07:46:52;96789.47;;;16.89;61.34
44926;BME280;30662;51.210;7.656;2022-09-01T07:49:38;96790.34;;;17.04;61.73
44926;BME280;30662;51.210;7.656;2022-09-01T07:52:25;96784.78;;;17.11;60.79
44926;BME280;30662;51.210;7.656;2022-09-01T07:54:51;96785.34;;;17.18;60.59
44926;BME280;30662;51.210;7.656;2022-09-01T07:57:17;96775.00;;;17.27;60.23
44926;BME280;30662;51.210;7.656;2022-09-01T07:59:43;96786.94;;;17.19;60.05
44926;BME280;30662;51.210;7.656;2022-09-01T08:02:09;96787.53;;;17.31;59.91
44926;BME280;30662;51.210;7.656;2022-09-01T08:04:35;96781.94;;;17.38;59.73
44926;BME280;30662;51.210;7.656;2022-09-01T08:07:01;96781.97;;;17.43;59.57
44926;BME280;30662;51.210;7.656;2022-09-01T08:09:27;96783.34;;;17.56;59.31
44926;BME280;30662;51.210;7.656;2022-09-01T08:12:05;96793.00;;;17.77;58.67
44926;BME280;30662;51.210;7.656;2022-09-01T08:14:33;96794.81;;;17.67;59.14
44926;BME280;30662;51.210;7.656;2022-09-01T08:16:59;96792.72;;;17.74;59.03
44926;BME280;30662;51.210;7.656;2022-09-01T08:19:41;96791.59;;;17.54;59.27
44926;BME280;30662;51.210;7.656;2022-09-01T08:22:09;96794.56;;;17.68;59.57
44926;BME280;30662;51.210;7.656;2022-09-01T08:24:35;96795.13;;;17.80;59.48
44926;BME280;30662;51.210;7.656;2022-09-01T08:27:00;96793.28;;;17.91;58.61
44926;BME280;30662;51.210;7.656;2022-09-01T08:29:26;96794.38;;;18.10;58.20
44926;BME280;30662;51.210;7.656;2022-09-01T08:31:52;96785.31;;;18.22;58.08
44926;BME280;30662;51.210;7.656;2022-09-01T08:34:19;96788.50;;;18.29;56.68
44926;BME280;30662;51.210;7.656;2022-09-01T08:36:44;96793.84;;;18.34;56.73
44926;BME280;30662;51.210;7.656;2022-09-01T08:39:11;96798.38;;;18.43;56.65
44926;BME280;30662;51.210;7.656;2022-09-01T08:41:46;96797.56;;;18.53;56.54
44926;BME280;30662;51.210;7.656;2022-09-01T08:46:54;96794.63;;;18.65;54.46
44926;BME280;30662;51.210;7.656;2022-09-01T08:49:24;96792.50;;;18.77;54.23
44926;BME280;30662;51.210;7.656;2022-09-01T08:52:04;96788.19;;;18.91;52.57
44926;BME280;30662;51.210;7.656;2022-09-01T08:54:45;96799.44;;;18.83;51.52
44926;BME280;30662;51.210;7.656;2022-09-01T08:59:51;96796.47;;;18.80;51.63
44926;BME280;30662;51.210;7.656;2022-09-01T09:08:11;96790.91;;;18.51;53.20
44926;BME280;30662;51.210;7.656;2022-09-01T09:16:44;96790.81;;;18.96;52.49
44926;BME280;30662;51.210;7.656;2022-09-01T09:21:47;96780.06;;;19.17;51.83
44926;BME280;30662;51.210;7.656;2022-09-01T09:24:39;96787.78;;;19.28;51.81
44926;BME280;30662;51.210;7.656;2022-09-01T09:27:22;96785.41;;;19.27;51.16
44926;BME280;30662;51.210;7.656;2022-09-01T09:30:27;96786.41;;;19.36;51.18
44926;BME280;30662;51.210;7.656;2022-09-01T09:32:59;96781.19;;;19.70;49.45
44926;BME280;30662;51.210;7.656;2022-09-01T09:35:48;96779.28;;;19.76;49.05
44926;BME280;30662;51.210;7.656;2022-09-01T09:38:16;96772.31;;;19.80;48.83
44926;BME280;30662;51.210;7.656;2022-09-01T09:41:05;96771.13;;;19.96;49.01
44926;BME280;30662;51.210;7.656;2022-09-01T09:44:14;96770.81;;;20.03;48.32
44926;BME280;30662;51.210;7.656;2022-09-01T09:46:43;96778.78;;;20.08;47.63
44926;BME280;30662;51.210;7.656;2022-09-01T09:49:43;96768.69;;;20.00;47.19
44926;BME280;30662;51.210;7.656;2022-09-01T09:52:14;96771.25;;;20.15;46.10
44926;BME280;30662;51.210;7.656;2022-09-01T09:55:03;96777.63;;;20.19;45.91
44926;BME280;30662;51.210;7.656;2022-09-01T09:57:31;96768.16;;;20.32;45.14
44926;BME280;30662;51.210;7.656;2022-09-01T10:02:41;96762.00;;;20.31;45.68
44926;BME280;30662;51.210;7.656;2022-09-01T10:05:25;96751.44;;;20.50;45.52
44926;BME280;30662;51.210;7.656;2022-09-01T10:07:52;96753.28;;;20.79;44.92
44926;BME280;30662;51.210;7.656;2022-09-01T10:10:43;96745.06;;;21.18;43.58
44926;BME280;30662;51.210;7.656;2022-09-01T10:13:23;96752.00;;;21.43;42.79
44926;BME280;30662;51.210;7.656;2022-09-01T10:15:55;96751.06;;;21.90;42.31
44926;BME280;30662;51.210;7.656;2022-09-01T10:18:25;96744.56;;;22.29;41.47
44926;BME280;30662;51.210;7.656;2022-09-01T10:21:16;96742.75;;;21.73;41.87
44926;BME280;30662;51.210;7.656;2022-09-01T10:23:43;96745.06;;;21.61;41.68
44926;BME280;30662;51.210;7.656;2022-09-01T10:28:48;96742.28;;;22.36;40.86
44926;BME280;30662;51.210;7.656;2022-09-01T10:31:20;96734.28;;;22.64;40.36
44926;BME280;30662;51.210;7.656;2022-09-01T10:33:47;96739.88;;;22.67;39.67
44926;BME280;30662;51.210;7.656;2022-09-01T10:36:14;96742.41;;;23.05;39.52
44926;BME280;30662;51.210;7.656;2022-09-01T10:38:41;96741.91;;;23.53;38.59
44926;BME280;30662;51.210;7.656;2022-09-01T10:41:42;96736.63;;;23.11;38.57
44926;BME280;30662;51.210;7.656;2022-09-01T10:44:33;96733.59;;;23.41;39.16
44926;BME280;30662;51.210;7.656;2022-09-01T10:47:07;96732.31;;;23.24;38.63
44926;BME280;30662;51.210;7.656;2022-09-01T10:55:21;96730.69;;;24.09;37.03
44926;BME280;30662;51.210;7.656;2022-09-01T10:58:07;96726.00;;;25.08;35.69
44926;BME280;30662;51.210;7.656;2022-09-01T11:00:57;96732.31;;;25.87;33.46
44926;BME280;30662;51.210;7.656;2022-09-01T11:03:55;96721.47;;;26.04;33.24
44926;BME280;30662;51.210;7.656;2022-09-01T11:09:04;96732.94;;;25.75;32.53
44926;BME280;30662;51.210;7.656;2022-09-01T11:11:40;96732.94;;;25.83;32.75
44926;BME280;30662;51.210;7.656;2022-09-01T11:14:20;96727.53;;;25.83;32.20
44926;BME280;30662;51.210;7.656;2022-09-01T11:25:42;96738.66;;;25.73;32.69
44926;BME280;30662;51.210;7.656;2022-09-01T11:36:04;96735.44;;;26.23;31.85
44926;BME280;30662;51.210;7.656;2022-09-01T11:38:42;96743.38;;;26.28;32.08
44926;BME280;30662;51.210;7.656;2022-09-01T11:41:20;96731.09;;;26.65;31.33
44926;BME280;30662;51.210;7.656;2022-09-01T11:43:50;96732.81;;;27.00;31.02
44926;BME280;30662;51.210;7.656;2022-09-01T11:46:26;96730.75;;;27.35;30.66
44926;BME280;30662;51.210;7.656;2022-09-01T11:48:55;96733.19;;;27.28;30.12
44926;BME280;30662;51.210;7.656;2022-09-01T11:51:22;96734.03;;;26.08;32.21
44926;BME280;30662;51.210;7.656;2022-09-01T11:53:48;96731.50;;;25.77;32.39
44926;BME280;30662;51.210;7.656;2022-09-01T11:56:17;96733.69;;;25.58;32.73
44926;BME280;30662;51.210;7.656;2022-09-01T11:58:45;96729.91;;;26.11;31.80
44926;BME280;30662;51.210;7.656;2022-09-01T12:01:33;96727.81;;;26.89;30.17
44926;BME280;30662;51.210;7.656;2022-09-01T12:04:20;96721.44;;;27.24;28.56
44926;BME280;30662;51.210;7.656;2022-09-01T12:07:12;96717.34;;;27.17;28.52
44926;BME280;30662;51.210;7.656;2022-09-01T12:09:43;96709.69;;;27.19;28.91
44926;BME280;30662;51.210;7.656;2022-09-01T12:12:36;96701.28;;;27.12;29.47
44926;BME280;30662;51.210;7.656;2022-09-01T12:15:23;96701.66;;;27.02;28.97
44926;BME280;30662;51.210;7.656;2022-09-01T12:17:50;96697.22;;;27.27;29.40
44926;BME280;30662;51.210;7.656;2022-09-01T12:20:28;96700.97;;;27.14;28.33
44926;BME280;30662;51.210;7.656;2022-09-01T12:22:57;96700.44;;;27.20;28.49
44926;BME280;30662;51.210;7.656;2022-09-01T12:25:28;96703.84;;;27.59;27.31
44926;BME280;30662;51.210;7.656;2022-09-01T12:27:55;96704.94;;;27.37;27.87
44926;BME280;30662;51.210;7.656;2022-09-01T12:30:22;96709.03;;;26.37;28.99
44926;BME280;30662;51.210;7.656;2022-09-01T12:32:49;96697.22;;;24.95;31.07
44926;BME280;30662;51.210;7.656;2022-09-01T12:35:24;96698.31;;;24.01;31.97
44926;BME280;30662;51.210;7.656;2022-09-01T12:37:51;96688.41;;;24.10;32.52
44926;BME280;30662;51.210;7.656;2022-09-01T12:40:31;96691.63;;;24.43;32.22
44926;BME280;30662;51.210;7.656;2022-09-01T12:42:58;96687.66;;;24.40;32.23
44926;BME280;30662;51.210;7.656;2022-09-01T12:45:46;96690.13;;;24.06;33.31
44926;BME280;30662;51.210;7.656;2022-09-01T16:22:30;96570.00;;;24.58;29.49
44926;BME280;30662;51.210;7.656;2022-09-01T16:25:16;96571.59;;;24.68;29.91
44926;BME280;30662;51.210;7.656;2022-09-01T16:27:44;96561.78;;;24.81;28.82
44926;BME280;30662;51.210;7.656;2022-09-01T16:30:14;96570.16;;;24.62;28.64
44926;BME280;30662;51.210;7.656;2022-09-01T16:32:45;96566.06;;;24.73;28.65
44926;BME280;30662;51.210;7.656;2022-09-01T16:35:13;96566.31;;;24.45;28.84
44926;BME280;30662;51.210;7.656;2022-09-01T16:40:46;96561.91;;;24.50;28.70
44926;BME280;30662;51.210;7.656;2022-09-01T16:46:19;96557.31;;;24.19;29.60
44926;BME280;30662;51.210;7.656;2022-09-01T16:52:03;96556.69;;;24.13;29.84
44926;BME280;30662;51.210;7.656;2022-09-01T16:55:00;96557.81;;;24.21;29.89
44926;BME280;30662;51.210;7.656;2022-09-01T16:57:47;96544.81;;;24.14;29.82
44926;BME280;30662;51.210;7.656;2022-09-01T17:00:19;96544.28;;;24.04;29.43
44926;BME280;30662;51.210;7.656;2022-09-01T17:03:06;96547.97;;;23.77;30.33
44926;BME280;30662;51.210;7.656;2022-09-01T17:05:38;96542.00;;;23.88;29.92
44926;BME280;30662;51.210;7.656;2022-09-01T17:08:25;96549.19;;;23.48;30.61
44926;BME280;30662;51.210;7.656;2022-09-01T17:13:32;96552.44;;;23.14;31.36
44926;BME280;30662;51.210;7.656;2022-09-01T17:16:24;96546.88;;;22.74;32.15
44926;BME280;30662;51.210;7.656;2022-09-01T17:18:58;96542.63;;;22.46;32.85
44926;BME280;30662;51.210;7.656;2022-09-01T17:21:44;96540.06;;;22.41;33.16
44926;BME280;30662;51.210;7.656;2022-09-01T17:24:36;96549.00;;;22.22;33.48
44926;BME280;30662;51.210;7.656;2022-09-01T17:29:43;96545.88;;;22.01;33.67
44926;BME280;30662;51.210;7.656;2022-09-01T17:32:38;96547.47;;;21.89;34.00
44926;BME280;30662;51.210;7.656;2022-09-01T17:35:44;96545.34;;;21.72;34.58
44926;BME280;30662;51.210;7.656;2022-09-01T17:38:38;96547.13;;;21.63;34.72
44926;BME280;30662;51.210;7.656;2022-09-01T17:41:35;96549.63;;;21.59;35.29
44926;BME280;30662;51.210;7.656;2022-09-01T17:44:34;96553.66;;;21.57;35.77
44926;BME280;30662;51.210;7.656;2022-09-01T17:47:11;96546.59;;;21.47;37.28
44926;BME280;30662;51.210;7.656;2022-09-01T17:50:03;96544.81;;;21.56;38.04
44926;BME280;30662;51.210;7.656;2022-09-01T17:55:56;96541.25;;;21.28;36.49
44926;BME280;30662;51.210;7.656;2022-09-01T17:58:37;96540.25;;;21.24;36.58
44926;BME280;30662;51.210;7.656;2022-09-01T18:01:23;96535.25;;;21.17;37.41
44926;BME280;30662;51.210;7.656;2022-09-01T18:04:17;96547.63;;;21.13;37.22
44926;BME280;30662;51.210;7.656;2022-09-01T18:09:44;96546.34;;;20.54;37.93
44926;BME280;30662;51.210;7.656;2022-09-01T18:12:16;96548.47;;;20.57;37.50
44926;BME280;30662;51.210;7.656;2022-09-01T18:15:00;96543.38;;;20.56;37.69
44926;BME280;30662;51.210;7.656;2022-09-01T18:17:32;96546.78;;;20.37;37.86